sensor_id;sensor_type;location;lat;lon;timestamp;temperature;humidity
44773;DHT22;30492;52.088;5.122;2022-07-06T08:21:30;21.70;99.90
44773;DHT22;30492;52.088;5.122;2022-07-06T08:24:36;21.70;99.90
44773;DHT22;30492;52.088;5.122;2022-07-06T08:27:41;21.90;99.90
44773;DHT22;30492;52.088;5.122;2022-07-06T08:30:49;22.00;99.90
44773;DHT22;30492;52.088;5.122;2022-07-06T08:33:55;22.10;99.90
44773;DHT22;30492;52.088;5.122;2022-07-06T08:37:02;22.00;98.60
44773;DHT22;30492;52.088;5.122;2022-07-06T08:40:08;21.40;98.60
44773;DHT22;30492;52.088;5.122;2022-07-06T08:43:15;21.30;99.90
44773;DHT22;30492;52.088;5.122;2022-07-06T08:46:20;21.50;99.20
44773;DHT22;30492;52.088;5.122;2022-07-06T08:49:32;21.50;99.90
44773;DHT22;30492;52.088;5.122;2022-07-06T08:52:39;21.80;99.70
44773;DHT22;30492;52.088;5.122;2022-07-06T08:55:47;21.70;98.30
44773;DHT22;30492;52.088;5.122;2022-07-06T08:58:53;21.90;98.30
44773;DHT22;30492;52.088;5.122;2022-07-06T09:01:59;21.70;98.90
44773;DHT22;30492;52.088;5.122;2022-07-06T09:05:05;21.70;98.90
44773;DHT22;30492;52.088;5.122;2022-07-06T09:08:12;21.90;99.20
44773;DHT22;30492;52.088;5.122;2022-07-06T09:11:18;22.10;99.30
44773;DHT22;30492;52.088;5.122;2022-07-06T09:14:25;22.20;98.20
44773;DHT22;30492;52.088;5.122;2022-07-06T09:17:31;22.30;98.60
44773;DHT22;30492;52.088;5.122;2022-07-06T09:20:38;22.20;98.50
44773;DHT22;30492;52.088;5.122;2022-07-06T09:23:53;22.00;97.70
44773;DHT22;30492;52.088;5.122;2022-07-06T09:26:59;21.70;98.20
44773;DHT22;30492;52.088;5.122;2022-07-06T09:30:06;22.00;99.50
44773;DHT22;30492;52.088;5.122;2022-07-06T09:33:11;22.10;99.30
44773;DHT22;30492;52.088;5.122;2022-07-06T09:36:36;22.10;98.00
44773;DHT22;30492;52.088;5.122;2022-07-06T09:39:44;22.30;99.00
44773;DHT22;30492;52.088;5.122;2022-07-06T09:42:49;22.40;98.50
44773;DHT22;30492;52.088;5.122;2022-07-06T09:45:56;22.50;98.70
44773;DHT22;30492;52.088;5.122;2022-07-06T09:49:01;22.70;97.80
44773;DHT22;30492;52.088;5.122;2022-07-06T09:52:07;22.90;98.10
44773;DHT22;30492;52.088;5.122;2022-07-06T09:55:18;23.10;97.70
44773;DHT22;30492;52.088;5.122;2022-07-06T09:58:23;23.10;97.00
44773;DHT22;30492;52.088;5.122;2022-07-06T10:01:29;23.20;97.80
44773;DHT22;30492;52.088;5.122;2022-07-06T10:04:34;23.20;97.30
44773;DHT22;30492;52.088;5.122;2022-07-06T10:07:40;23.40;97.70
44773;DHT22;30492;52.088;5.122;2022-07-06T10:10:49;23.50;95.90
44773;DHT22;30492;52.088;5.122;2022-07-06T10:13:55;23.40;96.30
44773;DHT22;30492;52.088;5.122;2022-07-06T10:17:02;23.20;95.60
44773;DHT22;30492;52.088;5.122;2022-07-06T10:20:09;23.30;96.30
44773;DHT22;30492;52.088;5.122;2022-07-06T10:23:17;23.50;96.20
44773;DHT22;30492;52.088;5.122;2022-07-06T10:26:24;23.70;96.30
44773;DHT22;30492;52.088;5.122;2022-07-06T10:29:32;23.90;96.00
44773;DHT22;30492;52.088;5.122;2022-07-06T10:32:40;23.60;93.60
44773;DHT22;30492;52.088;5.122;2022-07-06T10:35:47;23.50;95.00
44773;DHT22;30492;52.088;5.122;2022-07-06T10:38:53;23.90;95.80
44773;DHT22;30492;52.088;5.122;2022-07-06T10:42:01;24.00;95.00
44773;DHT22;30492;52.088;5.122;2022-07-06T10:45:06;23.90;94.40
44773;DHT22;30492;52.088;5.122;2022-07-06T10:48:19;23.70;94.20
44773;DHT22;30492;52.088;5.122;2022-07-06T10:51:25;23.80;96.00
44773;DHT22;30492;52.088;5.122;2022-07-06T10:54:39;24.00;95.50
44773;DHT22;30492;52.088;5.122;2022-07-06T10:57:53;24.10;95.60
44773;DHT22;30492;52.088;5.122;2022-07-06T11:00:58;24.30;93.60
44773;DHT22;30492;52.088;5.122;2022-07-06T11:04:08;24.20;92.40
44773;DHT22;30492;52.088;5.122;2022-07-06T11:07:15;24.10;93.20
44773;DHT22;30492;52.088;5.122;2022-07-06T11:10:22;24.40;93.90
44773;DHT22;30492;52.088;5.122;2022-07-06T11:13:29;24.50;92.30
44773;DHT22;30492;52.088;5.122;2022-07-06T11:16:40;24.70;93.20
44773;DHT22;30492;52.088;5.122;2022-07-06T11:20:12;24.90;94.30
44773;DHT22;30492;52.088;5.122;2022-07-06T11:23:17;25.20;92.90
44773;DHT22;30492;52.088;5.122;2022-07-06T11:26:22;25.20;90.90
44773;DHT22;30492;52.088;5.122;2022-07-06T11:29:30;25.30;91.50
44773;DHT22;30492;52.088;5.122;2022-07-06T11:32:35;25.40;91.20
44773;DHT22;30492;52.088;5.122;2022-07-06T11:35:40;25.80;91.30
44773;DHT22;30492;52.088;5.122;2022-07-06T11:38:50;26.10;90.30
44773;DHT22;30492;52.088;5.122;2022-07-06T11:41:55;26.30;90.60
44773;DHT22;30492;52.088;5.122;2022-07-06T11:45:03;26.20;88.00
44773;DHT22;30492;52.088;5.122;2022-07-06T11:48:12;26.20;91.20
44773;DHT22;30492;52.088;5.122;2022-07-06T11:51:19;26.20;91.10
44773;DHT22;30492;52.088;5.122;2022-07-06T11:54:24;26.40;91.60
44773;DHT22;30492;52.088;5.122;2022-07-06T11:57:32;26.30;90.10
44773;DHT22;30492;52.088;5.122;2022-07-06T12:00:38;25.80;87.40
44773;DHT22;30492;52.088;5.122;2022-07-06T12:03:44;25.20;90.40
44773;DHT22;30492;52.088;5.122;2022-07-06T12:06:49;25.10;90.50
44773;DHT22;30492;52.088;5.122;2022-07-06T12:09:54;25.40;90.80
44773;DHT22;30492;52.088;5.122;2022-07-06T12:13:02;25.40;90.20
44773;DHT22;30492;52.088;5.122;2022-07-06T12:16:14;25.40;91.10
44773;DHT22;30492;52.088;5.122;2022-07-06T12:19:21;25.50;91.00
44773;DHT22;30492;52.088;5.122;2022-07-06T12:22:27;25.20;90.00
44773;DHT22;30492;52.088;5.122;2022-07-06T12:25:33;25.20;91.40
44773;DHT22;30492;52.088;5.122;2022-07-06T12:28:38;25.50;90.20
44773;DHT22;30492;52.088;5.122;2022-07-06T12:31:49;25.30;90.20
44773;DHT22;30492;52.088;5.122;2022-07-06T12:35:03;25.30;90.40
44773;DHT22;30492;52.088;5.122;2022-07-06T12:38:08;25.80;90.90
44773;DHT22;30492;52.088;5.122;2022-07-06T12:41:43;26.20;90.80
44773;DHT22;30492;52.088;5.122;2022-07-06T12:44:50;26.10;88.00
44773;DHT22;30492;52.088;5.122;2022-07-06T12:48:02;26.00;87.40
44773;DHT22;30492;52.088;5.122;2022-07-06T12:51:08;26.00;90.00
44773;DHT22;30492;52.088;5.122;2022-07-06T12:54:14;25.40;90.00
44773;DHT22;30492;52.088;5.122;2022-07-06T12:57:20;24.60;91.10
44773;DHT22;30492;52.088;5.122;2022-07-06T13:00:27;24.60;91.20
44773;DHT22;30492;52.088;5.122;2022-07-06T13:03:39;24.50;91.10
44773;DHT22;30492;52.088;5.122;2022-07-06T13:06:44;24.80;92.10
44773;DHT22;30492;52.088;5.122;2022-07-06T13:09:50;25.00;91.40
44773;DHT22;30492;52.088;5.122;2022-07-06T13:12:55;25.30;91.10
44773;DHT22;30492;52.088;5.122;2022-07-06T13:16:00;25.30;90.50
44773;DHT22;30492;52.088;5.122;2022-07-06T13:19:07;25.10;90.00
44773;DHT22;30492;52.088;5.122;2022-07-06T13:22:12;25.30;90.00
44773;DHT22;30492;52.088;5.122;2022-07-06T13:25:18;25.10;90.40
44773;DHT22;30492;52.088;5.122;2022-07-06T13:28:23;25.20;90.20
44773;DHT22;30492;52.088;5.122;2022-07-06T13:31:28;24.90;90.30
44773;DHT22;30492;52.088;5.122;2022-07-06T13:34:35;24.90;90.50
44773;DHT22;30492;52.088;5.122;2022-07-06T13:37:40;25.10;90.40
44773;DHT22;30492;52.088;5.122;2022-07-06T13:40:45;25.40;91.30
44773;DHT22;30492;52.088;5.122;2022-07-06T13:43:51;25.40;91.00
44773;DHT22;30492;52.088;5.122;2022-07-06T13:46:56;25.40;90.60
44773;DHT22;30492;52.088;5.122;2022-07-06T13:50:03;25.40;91.30
44773;DHT22;30492;52.088;5.122;2022-07-06T13:53:08;25.20;90.50
44773;DHT22;30492;52.088;5.122;2022-07-06T13:56:13;24.80;91.50
44773;DHT22;30492;52.088;5.122;2022-07-06T13:59:19;24.80;91.10
44773;DHT22;30492;52.088;5.122;2022-07-06T14:02:24;24.60;92.50
44773;DHT22;30492;52.088;5.122;2022-07-06T14:05:30;24.80;92.60
44773;DHT22;30492;52.088;5.122;2022-07-06T14:08:37;25.00;92.20
44773;DHT22;30492;52.088;5.122;2022-07-06T14:11:42;25.00;92.30
44773;DHT22;30492;52.088;5.122;2022-07-06T14:14:48;25.00;92.30
44773;DHT22;30492;52.088;5.122;2022-07-06T14:17:53;24.70;92.60
44773;DHT22;30492;52.088;5.122;2022-07-06T14:20:59;24.80;92.40
44773;DHT22;30492;52.088;5.122;2022-07-06T14:24:05;24.60;92.10
44773;DHT22;30492;52.088;5.122;2022-07-06T14:27:10;24.50;92.60
44773;DHT22;30492;52.088;5.122;2022-07-06T14:30:15;24.50;93.10
44773;DHT22;30492;52.088;5.122;2022-07-06T14:33:20;24.50;92.90
44773;DHT22;30492;52.088;5.122;2022-07-06T14:36:27;24.50;92.20
44773;DHT22;30492;52.088;5.122;2022-07-06T14:39:32;24.60;93.20
44773;DHT22;30492;52.088;5.122;2022-07-06T14:42:37;24.60;93.00
44773;DHT22;30492;52.088;5.122;2022-07-06T14:45:43;24.50;92.60
44773;DHT22;30492;52.088;5.122;2022-07-06T14:48:48;24.30;93.00
44773;DHT22;30492;52.088;5.122;2022-07-06T14:51:54;24.00;92.40
44773;DHT22;30492;52.088;5.122;2022-07-06T14:55:00;23.90;94.00
44773;DHT22;30492;52.088;5.122;2022-07-06T14:58:05;23.90;93.30
44773;DHT22;30492;52.088;5.122;2022-07-06T15:01:10;23.90;93.10
44773;DHT22;30492;52.088;5.122;2022-07-06T15:04:16;23.90;93.80
44773;DHT22;30492;52.088;5.122;2022-07-06T15:07:22;24.00;93.60
44773;DHT22;30492;52.088;5.122;2022-07-06T15:10:28;23.90;94.60
44773;DHT22;30492;52.088;5.122;2022-07-06T15:13:33;24.00;95.60
44773;DHT22;30492;52.088;5.122;2022-07-06T15:16:38;23.80;97.50
44773;DHT22;30492;52.088;5.122;2022-07-06T15:19:44;23.70;98.10
44773;DHT22;30492;52.088;5.122;2022-07-06T15:22:51;23.60;97.10
44773;DHT22;30492;52.088;5.122;2022-07-06T15:25:57;23.70;96.90
44773;DHT22;30492;52.088;5.122;2022-07-06T15:29:02;23.50;99.00
44773;DHT22;30492;52.088;5.122;2022-07-06T15:32:08;23.40;99.70
44773;DHT22;30492;52.088;5.122;2022-07-06T15:35:13;23.40;99.90
44773;DHT22;30492;52.088;5.122;2022-07-06T15:38:20;23.40;99.50
44773;DHT22;30492;52.088;5.122;2022-07-06T15:41:25;23.40;97.50
44773;DHT22;30492;52.088;5.122;2022-07-06T15:44:30;23.40;98.20
44773;DHT22;30492;52.088;5.122;2022-07-06T15:47:35;23.40;98.60
44773;DHT22;30492;52.088;5.122;2022-07-06T15:50:40;23.50;98.30
44773;DHT22;30492;52.088;5.122;2022-07-06T15:53:47;23.50;98.40
44773;DHT22;30492;52.088;5.122;2022-07-06T15:56:53;23.60;98.50
44773;DHT22;30492;52.088;5.122;2022-07-06T15:59:57;23.50;98.10
44773;DHT22;30492;52.088;5.122;2022-07-06T16:03:03;23.60;98.40
44773;DHT22;30492;52.088;5.122;2022-07-06T16:06:08;23.60;98.00
44773;DHT22;30492;52.088;5.122;2022-07-06T16:09:15;23.50;98.60
44773;DHT22;30492;52.088;5.122;2022-07-06T16:12:20;23.30;99.20
44773;DHT22;30492;52.088;5.122;2022-07-06T16:15:25;23.00;99.10
44773;DHT22;30492;52.088;5.122;2022-07-06T16:18:31;22.90;99.80
44773;DHT22;30492;52.088;5.122;2022-07-06T16:21:36;23.00;99.60
44773;DHT22;30492;52.088;5.122;2022-07-06T16:24:43;22.80;99.60
44773;DHT22;30492;52.088;5.122;2022-07-06T16:27:47;22.70;99.90
44773;DHT22;30492;52.088;5.122;2022-07-06T16:30:52;22.70;99.80
44773;DHT22;30492;52.088;5.122;2022-07-06T16:33:57;22.50;99.90
44773;DHT22;30492;52.088;5.122;2022-07-06T16:37:03;22.40;99.90
44773;DHT22;30492;52.088;5.122;2022-07-06T16:40:11;22.50;99.90
44773;DHT22;30492;52.088;5.122;2022-07-06T16:43:17;22.60;99.90
44773;DHT22;30492;52.088;5.122;2022-07-06T16:46:22;22.60;99.90
44773;DHT22;30492;52.088;5.122;2022-07-06T16:49:27;22.70;99.90
44773;DHT22;30492;52.088;5.122;2022-07-06T16:52:32;22.30;99.90
44773;DHT22;30492;52.088;5.122;2022-07-06T16:55:38;22.30;99.90
44773;DHT22;30492;52.088;5.122;2022-07-06T16:58:43;22.30;99.90
44773;DHT22;30492;52.088;5.122;2022-07-06T17:01:49;22.30;99.90
44773;DHT22;30492;52.088;5.122;2022-07-06T17:04:54;22.40;99.90
44773;DHT22;30492;52.088;5.122;2022-07-06T17:08:01;22.40;99.90
44773;DHT22;30492;52.088;5.122;2022-07-06T17:11:08;22.40;99.90
44773;DHT22;30492;52.088;5.122;2022-07-06T17:14:14;22.40;99.90
44773;DHT22;30492;52.088;5.122;2022-07-06T17:17:19;22.40;99.90
44773;DHT22;30492;52.088;5.122;2022-07-06T17:20:24;22.40;99.90
44773;DHT22;30492;52.088;5.122;2022-07-06T17:23:29;22.40;99.90
44773;DHT22;30492;52.088;5.122;2022-07-06T17:26:36;22.30;99.90
44773;DHT22;30492;52.088;5.122;2022-07-06T17:29:42;22.30;99.90
44773;DHT22;30492;52.088;5.122;2022-07-06T17:32:47;22.30;99.90
44773;DHT22;30492;52.088;5.122;2022-07-06T17:35:53;22.40;99.90
44773;DHT22;30492;52.088;5.122;2022-07-06T17:38:58;22.30;99.90
44773;DHT22;30492;52.088;5.122;2022-07-06T17:42:06;22.40;99.90
44773;DHT22;30492;52.088;5.122;2022-07-06T17:45:12;22.30;99.90
44773;DHT22;30492;52.088;5.122;2022-07-06T17:48:20;22.30;99.90
44773;DHT22;30492;52.088;5.122;2022-07-06T17:51:25;22.20;99.90
44773;DHT22;30492;52.088;5.122;2022-07-06T17:54:30;22.20;99.90
44773;DHT22;30492;52.088;5.122;2022-07-06T17:57:37;22.30;99.90
44773;DHT22;30492;52.088;5.122;2022-07-06T18:00:42;22.20;99.90
44773;DHT22;30492;52.088;5.122;2022-07-06T18:03:47;22.00;99.90
44773;DHT22;30492;52.088;5.122;2022-07-06T18:06:52;22.00;99.90
44773;DHT22;30492;52.088;5.122;2022-07-06T18:09:57;22.00;99.90
44773;DHT22;30492;52.088;5.122;2022-07-06T18:13:03;22.00;99.90
44773;DHT22;30492;52.088;5.122;2022-07-06T18:16:08;22.10;99.90
44773;DHT22;30492;52.088;5.122;2022-07-06T18:19:13;22.00;99.90
44773;DHT22;30492;52.088;5.122;2022-07-06T18:22:19;22.00;99.90
44773;DHT22;30492;52.088;5.122;2022-07-06T18:25:24;22.00;99.90
44773;DHT22;30492;52.088;5.122;2022-07-06T18:28:31;22.00;99.90
44773;DHT22;30492;52.088;5.122;2022-07-06T18:31:36;22.00;99.90
44773;DHT22;30492;52.088;5.122;2022-07-06T18:34:42;22.00;99.90
44773;DHT22;30492;52.088;5.122;2022-07-06T18:37:47;21.80;99.90
44773;DHT22;30492;52.088;5.122;2022-07-06T18:40:52;21.70;99.90
44773;DHT22;30492;52.088;5.122;2022-07-06T18:44:00;21.60;99.90
44773;DHT22;30492;52.088;5.122;2022-07-06T18:47:06;21.70;99.90
44773;DHT22;30492;52.088;5.122;2022-07-06T18:50:12;21.70;99.90
44773;DHT22;30492;52.088;5.122;2022-07-06T18:53:17;21.60;99.90
44773;DHT22;30492;52.088;5.122;2022-07-06T18:56:23;21.70;99.90
44773;DHT22;30492;52.088;5.122;2022-07-06T18:59:30;21.70;99.90
44773;DHT22;30492;52.088;5.122;2022-07-06T19:02:35;21.70;99.90
44773;DHT22;30492;52.088;5.122;2022-07-06T19:05:41;21.70;99.90
44773;DHT22;30492;52.088;5.122;2022-07-06T19:08:47;21.70;99.90
44773;DHT22;30492;52.088;5.122;2022-07-06T19:11:52;21.70;99.90
44773;DHT22;30492;52.088;5.122;2022-07-06T19:14:59;21.70;99.90
44773;DHT22;30492;52.088;5.122;2022-07-06T19:18:04;21.40;99.90
44773;DHT22;30492;52.088;5.122;2022-07-06T19:21:09;21.30;99.90
44773;DHT22;30492;52.088;5.122;2022-07-06T19:24:15;21.40;99.90
44773;DHT22;30492;52.088;5.122;2022-07-06T19:27:20;21.30;99.90
44773;DHT22;30492;52.088;5.122;2022-07-06T19:30:26;21.20;99.90
44773;DHT22;30492;52.088;5.122;2022-07-06T19:33:31;21.10;99.90
44773;DHT22;30492;52.088;5.122;2022-07-06T19:36:37;21.00;99.90
44773;DHT22;30492;52.088;5.122;2022-07-06T19:39:45;21.00;99.90
44773;DHT22;30492;52.088;5.122;2022-07-06T19:42:50;21.00;99.90
44773;DHT22;30492;52.088;5.122;2022-07-06T19:45:56;20.80;99.90
44773;DHT22;30492;52.088;5.122;2022-07-06T19:49:01;20.70;99.90
44773;DHT22;30492;52.088;5.122;2022-07-06T19:52:06;20.70;99.90
44773;DHT22;30492;52.088;5.122;2022-07-06T19:55:12;20.70;99.90
44773;DHT22;30492;52.088;5.122;2022-07-06T19:58:19;20.70;99.90
44773;DHT22;30492;52.088;5.122;2022-07-06T20:01:26;20.70;99.90
44773;DHT22;30492;52.088;5.122;2022-07-06T20:04:31;20.80;99.90
44773;DHT22;30492;52.088;5.122;2022-07-06T20:07:36;20.90;99.90
44773;DHT22;30492;52.088;5.122;2022-07-06T20:10:41;20.90;99.90
44773;DHT22;30492;52.088;5.122;2022-07-06T20:13:46;21.00;99.90
44773;DHT22;30492;52.088;5.122;2022-07-06T20:16:52;20.90;99.90
44773;DHT22;30492;52.088;5.122;2022-07-06T20:19:58;21.00;99.90
44773;DHT22;30492;52.088;5.122;2022-07-06T20:23:02;20.90;99.90
44773;DHT22;30492;52.088;5.122;2022-07-06T20:26:08;21.00;99.90
44773;DHT22;30492;52.088;5.122;2022-07-06T20:29:13;20.80;99.90
44773;DHT22;30492;52.088;5.122;2022-07-06T20:32:20;20.80;99.90
44773;DHT22;30492;52.088;5.122;2022-07-06T20:35:24;20.70;99.90
44773;DHT22;30492;52.088;5.122;2022-07-06T20:38:30;20.60;99.90
44773;DHT22;30492;52.088;5.122;2022-07-06T20:41:35;20.70;99.90
44773;DHT22;30492;52.088;5.122;2022-07-06T20:44:40;20.70;99.90
44773;DHT22;30492;52.088;5.122;2022-07-06T20:47:49;20.50;99.90
44773;DHT22;30492;52.088;5.122;2022-07-06T20:50:55;20.50;99.90
44773;DHT22;30492;52.088;5.122;2022-07-06T20:54:00;20.40;99.90
44773;DHT22;30492;52.088;5.122;2022-07-06T20:57:05;20.40;99.90
44773;DHT22;30492;52.088;5.122;2022-07-06T21:00:11;20.10;99.90
44773;DHT22;30492;52.088;5.122;2022-07-06T21:03:17;20.00;99.90
44773;DHT22;30492;52.088;5.122;2022-07-06T21:06:22;19.90;99.90
44773;DHT22;30492;52.088;5.122;2022-07-06T21:09:28;20.00;99.90
44773;DHT22;30492;52.088;5.122;2022-07-06T21:12:33;20.10;99.90
44773;DHT22;30492;52.088;5.122;2022-07-06T21:15:38;20.10;99.90
44773;DHT22;30492;52.088;5.122;2022-07-06T21:18:44;20.00;99.90
44773;DHT22;30492;52.088;5.122;2022-07-06T21:21:49;19.80;99.90
44773;DHT22;30492;52.088;5.122;2022-07-06T21:24:54;19.70;99.90
44773;DHT22;30492;52.088;5.122;2022-07-06T21:27:59;19.70;99.90
44773;DHT22;30492;52.088;5.122;2022-07-06T21:31:04;19.70;99.90
44773;DHT22;30492;52.088;5.122;2022-07-06T21:34:10;19.60;99.90
44773;DHT22;30492;52.088;5.122;2022-07-06T21:37:16;19.50;99.90
44773;DHT22;30492;52.088;5.122;2022-07-06T21:40:21;19.60;99.90
44773;DHT22;30492;52.088;5.122;2022-07-06T21:43:26;19.80;99.90
44773;DHT22;30492;52.088;5.122;2022-07-06T21:46:32;19.70;99.90
44773;DHT22;30492;52.088;5.122;2022-07-06T21:49:38;19.70;99.90
44773;DHT22;30492;52.088;5.122;2022-07-06T21:52:43;19.60;99.90
44773;DHT22;30492;52.088;5.122;2022-07-06T21:55:48;19.60;99.90
44773;DHT22;30492;52.088;5.122;2022-07-06T21:58:53;19.50;99.90
44773;DHT22;30492;52.088;5.122;2022-07-06T22:01:59;19.50;99.90
44773;DHT22;30492;52.088;5.122;2022-07-06T22:05:07;19.50;99.90
44773;DHT22;30492;52.088;5.122;2022-07-06T22:08:12;19.40;99.90
44773;DHT22;30492;52.088;5.122;2022-07-06T22:11:18;19.20;99.90
44773;DHT22;30492;52.088;5.122;2022-07-06T22:14:23;19.10;99.90
44773;DHT22;30492;52.088;5.122;2022-07-06T22:17:29;19.00;99.90
44773;DHT22;30492;52.088;5.122;2022-07-06T22:20:35;19.10;99.90
44773;DHT22;30492;52.088;5.122;2022-07-06T22:23:41;19.00;99.90
44773;DHT22;30492;52.088;5.122;2022-07-06T22:26:47;19.00;99.90
44773;DHT22;30492;52.088;5.122;2022-07-06T22:29:52;19.00;99.90
44773;DHT22;30492;52.088;5.122;2022-07-06T22:32:57;19.10;99.90
44773;DHT22;30492;52.088;5.122;2022-07-06T22:36:05;19.10;99.90
44773;DHT22;30492;52.088;5.122;2022-07-06T22:39:11;19.00;99.90
44773;DHT22;30492;52.088;5.122;2022-07-06T22:42:16;19.00;99.90
44773;DHT22;30492;52.088;5.122;2022-07-06T22:45:21;18.90;99.90
44773;DHT22;30492;52.088;5.122;2022-07-06T22:48:27;18.90;99.90
44773;DHT22;30492;52.088;5.122;2022-07-06T22:51:34;18.70;99.90
44773;DHT22;30492;52.088;5.122;2022-07-06T22:54:39;18.90;99.90
44773;DHT22;30492;52.088;5.122;2022-07-06T22:57:45;18.90;99.90
44773;DHT22;30492;52.088;5.122;2022-07-06T23:00:51;18.90;99.90
44773;DHT22;30492;52.088;5.122;2022-07-06T23:03:57;18.80;99.90
44773;DHT22;30492;52.088;5.122;2022-07-06T23:07:04;18.80;99.90
44773;DHT22;30492;52.088;5.122;2022-07-06T23:10:10;18.70;99.90
44773;DHT22;30492;52.088;5.122;2022-07-06T23:13:15;18.70;99.90
44773;DHT22;30492;52.088;5.122;2022-07-06T23:16:20;18.70;99.90
44773;DHT22;30492;52.088;5.122;2022-07-06T23:19:25;18.80;99.90
44773;DHT22;30492;52.088;5.122;2022-07-06T23:22:32;19.00;99.90
44773;DHT22;30492;52.088;5.122;2022-07-06T23:25:37;19.00;99.90
44773;DHT22;30492;52.088;5.122;2022-07-06T23:28:43;19.00;99.90
44773;DHT22;30492;52.088;5.122;2022-07-06T23:31:49;19.00;99.90
44773;DHT22;30492;52.088;5.122;2022-07-06T23:34:54;19.00;99.90
44773;DHT22;30492;52.088;5.122;2022-07-06T23:38:01;19.10;99.90
44773;DHT22;30492;52.088;5.122;2022-07-06T23:41:07;19.20;99.90
44773;DHT22;30492;52.088;5.122;2022-07-06T23:44:12;19.20;99.90
44773;DHT22;30492;52.088;5.122;2022-07-06T23:47:17;19.10;99.90
44773;DHT22;30492;52.088;5.122;2022-07-06T23:50:22;19.10;99.90
44773;DHT22;30492;52.088;5.122;2022-07-06T23:53:29;19.20;99.90
44773;DHT22;30492;52.088;5.122;2022-07-06T23:56:35;19.20;99.90
44773;DHT22;30492;52.088;5.122;2022-07-06T23:59:40;19.30;99.90
